Time;durP1;ratioP1;P1;durP2;ratioP2;P2;SDS_P1;SDS_P2;PMS_P1;PMS_P2;Temp;Humidity;BMP_temperature;BMP_pressure;BME280_temperature;BME280_humidity;BME280_pressure;Samples;Min_cycle;Max_cycle;Signal;HPM_P1;HPM_P2
2023/12/09 00:00:47;;;;;;;35.55;12.70;;;;;;;5.73;100.00;100805.50;6278299;22;20007;-84
2023/12/09 00:03:12;;;;;;;33.00;13.18;;;;;;;5.72;100.00;100795.09;6278202;22;20011;-85
2023/12/09 00:05:38;;;;;;;31.02;11.27;;;;;;;5.77;100.00;100800.66;6278343;22;20100;-84
2023/12/09 00:08:03;;;;;;;38.28;12.57;;;;;;;5.72;100.00;100805.69;6278239;22;20007;-84
2023/12/09 00:10:29;;;;;;;45.10;13.57;;;;;;;5.64;100.00;100789.88;6278283;22;20423;-83
2023/12/09 00:12:54;;;;;;;39.90;12.00;;;;;;;5.70;100.00;100789.13;6278523;22;20038;-84
2023/12/09 00:15:20;;;;;;;34.65;12.00;;;;;;;5.65;100.00;100787.03;6305763;22;20472;-85
2023/12/09 00:17:48;;;;;;;35.08;10.27;;;;;;;5.59;100.00;100787.78;6278234;22;20011;-84
2023/12/09 00:20:13;;;;;;;40.38;12.90;;;;;;;5.58;100.00;100799.41;6305609;22;20003;-85
2023/12/09 00:22:39;;;;;;;36.30;11.88;;;;;;;5.70;100.00;100808.53;6305361;22;20306;-85
2023/12/09 00:25:06;;;;;;;28.27;11.48;;;;;;;5.67;100.00;100800.94;6305457;22;20007;-84
2023/12/09 00:27:31;;;;;;;30.42;13.15;;;;;;;5.60;100.00;100798.22;6305543;22;20010;-85
2023/12/09 00:29:57;;;;;;;38.60;12.48;;;;;;;5.61;100.00;100804.34;6305416;22;20086;-84
2023/12/09 00:32:22;;;;;;;37.38;12.02;;;;;;;5.57;100.00;100797.75;6277892;22;20298;-85
2023/12/09 00:34:47;;;;;;;29.25;9.80;;;;;;;5.64;100.00;100811.09;6278040;22;20522;-85
2023/12/09 00:37:13;;;;;;;44.97;13.75;;;;;;;5.62;100.00;100792.72;6305344;22;20125;-86
2023/12/09 00:39:38;;;;;;;30.67;10.82;;;;;;;5.60;100.00;100800.84;6305414;22;20325;-85
2023/12/09 00:42:03;;;;;;;41.55;12.98;;;;;;;5.62;100.00;100803.31;6305637;22;20305;-85
2023/12/09 00:44:29;;;;;;;42.50;12.65;;;;;;;5.58;100.00;100800.22;6277948;22;20007;-85
2023/12/09 00:46:54;;;;;;;41.65;12.40;;;;;;;5.58;100.00;100802.88;6305218;22;20007;-85
2023/12/09 00:49:20;;;;;;;29.33;11.88;;;;;;;5.53;100.00;100807.91;6277936;22;20011;-85
2023/12/09 00:51:45;;;;;;;39.40;15.50;;;;;;;5.69;100.00;100808.72;6277946;22;20010;-85
2023/12/09 00:54:10;;;;;;;38.58;13.90;;;;;;;5.64;100.00;100811.91;6277841;22;20014;-86
2023/12/09 00:56:36;;;;;;;36.67;13.40;;;;;;;5.54;100.00;100779.56;6279129;22;20030;-87
2023/12/09 00:59:02;;;;;;;28.02;9.85;;;;;;;5.54;100.00;100784.84;6279219;22;20482;-85
2023/12/09 01:01:27;;;;;;;40.13;13.75;;;;;;;5.52;100.00;100779.75;6306485;22;20306;-86
2023/12/09 01:03:53;;;;;;;42.28;14.40;;;;;;;5.57;100.00;100797.75;6306426;22;20034;-86
2023/12/09 01:06:18;;;;;;;43.60;13.73;;;;;;;5.46;100.00;100798.19;6278992;22;20011;-87
2023/12/09 01:08:44;;;;;;;35.58;10.23;;;;;;;5.44;100.00;100795.72;6279071;22;20003;-86
2023/12/09 01:11:09;;;;;;;34.38;13.02;;;;;;;5.37;100.00;100788.66;6306531;22;20003;-88
2023/12/09 01:13:34;;;;;;;46.08;14.82;;;;;;;5.44;100.00;100793.06;6306545;22;20079;-88
2023/12/09 01:16:00;;;;;;;49.67;15.45;;;;;;;5.42;100.00;100789.78;6306632;22;20011;-86
2023/12/09 01:18:25;;;;;;;36.35;14.48;;;;;;;5.37;100.00;100778.91;6278994;22;20007;-86
2023/12/09 01:20:50;;;;;;;46.88;16.90;;;;;;;5.40;100.00;100775.06;6306572;22;20034;-85
2023/12/09 01:23:15;;;;;;;33.25;12.35;;;;;;;5.34;100.00;100781.09;6306356;22;20031;-88
2023/12/09 01:25:41;;;;;;;31.90;11.45;;;;;;;5.40;100.00;100789.13;6279067;22;20014;-86
2023/12/09 01:28:06;;;;;;;37.65;14.25;;;;;;;5.40;100.00;100783.81;6279102;22;20056;-86
2023/12/09 01:30:32;;;;;;;29.13;12.93;;;;;;;5.29;100.00;100771.84;6306731;22;20324;-86
2023/12/09 01:32:57;;;;;;;47.78;17.80;;;;;;;5.37;100.00;100780.72;6278979;22;20056;-85
2023/12/09 01:35:23;;;;;;;31.05;11.95;;;;;;;5.36;100.00;100784.38;6306631;22;20010;-86
2023/12/09 01:37:48;;;;;;;42.50;13.63;;;;;;;5.25;100.00;100786.47;6278906;22;20007;-84
2023/12/09 01:40:14;;;;;;;42.10;16.27;;;;;;;5.38;100.00;100787.66;6277644;22;19999;-85
2023/12/09 01:42:43;;;;;;;42.53;15.05;;;;;;;5.36;100.00;100779.06;6305436;22;20007;-86
2023/12/09 01:45:09;;;;;;;50.67;16.38;;;;;;;5.39;100.00;100790.13;6305653;22;20002;-85
2023/12/09 01:47:36;;;;;;;42.63;14.05;;;;;;;5.40;100.00;100775.06;6306080;22;20184;-85
2023/12/09 01:50:06;;;;;;;36.30;12.05;;;;;;;5.32;100.00;100753.94;6304989;22;20010;-85
2023/12/09 01:52:34;;;;;;;36.88;13.55;;;;;;;5.26;100.00;100750.19;6277407;22;20011;-84
2023/12/09 01:55:00;;;;;;;35.22;12.32;;;;;;;5.32;100.00;100762.72;6277830;22;20015;-83
2023/12/09 01:57:27;;;;;;;46.97;14.60;;;;;;;5.28;100.00;100741.06;6278199;22;20003;-85
2023/12/09 01:59:53;;;;;;;39.30;15.00;;;;;;;5.28;100.00;100729.63;6278363;22;20010;-86
2023/12/09 02:02:19;;;;;;;40.47;15.48;;;;;;;5.26;100.00;100739.59;6277331;22;20015;-85
2023/12/09 02:04:44;;;;;;;54.30;14.23;;;;;;;5.10;100.00;100742.38;6278078;22;20076;-86
2023/12/09 02:07:10;;;;;;;42.35;14.90;;;;;;;5.19;100.00;100762.50;6277827;22;20026;-82
2023/12/09 02:09:39;;;;;;;49.25;16.52;;;;;;;5.11;100.00;100747.50;6277988;22;20007;-86
2023/12/09 02:12:27;;;;;;;41.47;14.68;;;;;;;5.09;100.00;100756.66;6277416;22;20011;-86
2023/12/09 02:15:00;;;;;;;41.35;13.90;;;;;;;5.02;100.00;100763.69;6278200;22;20011;-85
2023/12/09 02:17:34;;;;;;;;;;;;;;;5.01;100.00;100760.19;6278832;22;20050;-85
2023/12/09 02:20:00;;;;;;;;;;;;;;;5.04;100.00;100757.19;6306553;22;20243;-85
2023/12/09 02:22:26;;;;;;;35.22;11.20;;;;;;;4.76;100.00;100721.69;6278060;22;19917;-87
2023/12/09 02:24:51;;;;;;;35.58;13.10;;;;;;;4.91;100.00;100746.38;6305628;22;20039;-88
2023/12/09 02:27:42;;;;;;;38.95;12.70;;;;;;;4.74;100.00;100735.09;6278023;22;20010;-88
2023/12/09 02:30:19;;;;;;;35.53;13.57;;;;;;;4.59;100.00;100715.69;6305915;22;20046;-86
2023/12/09 02:32:45;;;;;;;40.10;13.10;;;;;;;4.72;100.00;100736.28;6278449;22;20060;-87
2023/12/09 02:35:12;;;;;;;35.97;13.52;;;;;;;4.58;100.00;100714.03;6277608;22;20064;-87
2023/12/09 02:37:39;;;;;;;62.15;16.40;;;;;;;4.75;100.00;100741.22;6277996;22;20034;-87
2023/12/09 02:40:09;;;;;;;36.67;11.52;;;;;;;4.66;100.00;100728.06;6276775;22;20407;-84
2023/12/09 02:42:38;;;;;;;34.08;13.50;;;;;;;4.72;100.00;100725.69;6305786;22;20359;-84
2023/12/09 02:45:06;;;;;;;52.65;17.33;;;;;;;4.65;100.00;100704.41;6278295;22;20110;-83
2023/12/09 02:47:31;;;;;;;47.05;15.98;;;;;;;4.75;100.00;100709.44;6305968;22;20336;-85
2023/12/09 02:49:57;;;;;;;41.15;16.40;;;;;;;4.72;100.00;100707.97;6305256;22;20011;-87
2023/12/09 02:52:22;;;;;;;43.13;15.88;;;;;;;4.72;100.00;100705.31;6277678;22;20006;-87
2023/12/09 02:54:47;;;;;;;41.83;15.18;;;;;;;4.62;100.00;100710.84;6304958;22;20340;-85
2023/12/09 02:57:13;;;;;;;46.47;16.10;;;;;;;4.70;100.00;100711.81;6278365;22;20420;-85
2023/12/09 02:59:40;;;;;;;51.50;14.68;;;;;;;4.69;100.00;100721.59;6278203;22;20065;-84
2023/12/09 03:02:05;;;;;;;51.72;17.65;;;;;;;4.74;100.00;100703.31;6277947;22;20377;-84
2023/12/09 03:04:31;;;;;;;37.15;13.98;;;;;;;4.64;100.00;100695.63;6304926;22;20030;-87
2023/12/09 03:06:56;;;;;;;38.35;11.98;;;;;;;4.65;100.00;100694.63;6277168;22;20014;-84
2023/12/09 03:09:22;;;;;;;47.72;14.63;;;;;;;4.64;100.00;100700.94;6305704;22;20003;-82
2023/12/09 03:11:47;;;;;;;48.65;13.75;;;;;;;4.60;100.00;100678.44;6306060;22;19999;-82
2023/12/09 03:17:56;;;;;;;34.10;13.55;;;;;;;4.37;100.00;100663.59;6160234;22;20021;-82
2023/12/09 03:20:22;;;;;;;32.88;11.82;;;;;;;4.53;100.00;100643.09;6274903;22;20007;-82
2023/12/09 03:22:47;;;;;;;39.33;10.57;;;;;;;4.70;100.00;100706.50;6278372;22;20011;-81
2023/12/09 03:25:12;;;;;;;34.58;11.10;;;;;;;4.77;100.00;100665.06;6305638;22;20323;-84
2023/12/09 03:27:37;;;;;;;52.13;12.45;;;;;;;4.77;100.00;100712.72;6305883;22;20420;-82
2023/12/09 03:30:03;;;;;;;52.05;14.80;;;;;;;4.85;100.00;100678.22;6305751;22;20003;-82
2023/12/09 03:32:29;;;;;;;33.85;10.77;;;;;;;4.74;100.00;100691.91;6305637;22;20007;-83
2023/12/09 03:34:54;;;;;;;42.17;13.35;;;;;;;4.77;100.00;100670.34;6278287;22;20010;-82
2023/12/09 03:37:19;;;;;;;38.58;11.15;;;;;;;4.76;100.00;100682.78;6278365;22;20014;-82
2023/12/09 03:39:45;;;;;;;30.60;9.85;;;;;;;4.78;100.00;100683.41;6305677;22;20027;-81
2023/12/09 03:42:10;;;;;;;39.33;11.38;;;;;;;4.74;100.00;100686.59;6278225;22;20010;-81
2023/12/09 03:44:36;;;;;;;48.92;14.75;;;;;;;4.72;100.00;100676.19;6278201;22;20062;-81
2023/12/09 03:47:01;;;;;;;35.22;11.80;;;;;;;4.64;100.00;100671.81;6278352;22;20007;-81
2023/12/09 03:49:26;;;;;;;27.00;10.27;;;;;;;4.77;100.00;100683.59;6305756;22;20003;-81
2023/12/09 03:51:51;;;;;;;29.83;10.73;;;;;;;4.65;100.00;100667.34;6278168;22;20003;-82
2023/12/09 03:54:17;;;;;;;29.25;10.20;;;;;;;4.65;100.00;100657.56;6305638;22;20014;-83
2023/12/09 03:56:42;;;;;;;40.90;11.93;;;;;;;4.65;100.00;100668.16;6278298;22;20007;-83
2023/12/09 03:59:08;;;;;;;47.08;11.90;;;;;;;4.69;100.00;100662.50;6305896;22;20010;-84
2023/12/09 04:01:33;;;;;;;36.55;12.13;;;;;;;4.60;100.00;100632.59;6305735;22;20383;-83
2023/12/09 04:03:58;;;;;;;24.52;8.13;;;;;;;4.71;100.00;100656.00;6305418;22;19999;-82
2023/12/09 04:06:23;;;;;;;38.70;11.40;;;;;;;4.62;100.00;100643.84;6305734;22;20033;-83
2023/12/09 04:08:49;;;;;;;24.00;9.50;;;;;;;4.58;100.00;100639.91;6278258;22;20010;-83
2023/12/09 04:11:14;;;;;;;34.22;9.70;;;;;;;4.53;100.00;100651.03;6278344;22;20021;-82
2023/12/09 04:13:40;;;;;;;27.95;9.45;;;;;;;4.63;100.00;100648.97;6305632;22;20057;-81
2023/12/09 04:16:06;;;;;;;34.83;9.45;;;;;;;4.54;100.00;100642.09;6305708;22;20056;-82
2023/12/09 04:18:32;;;;;;;32.30;9.45;;;;;;;4.56;100.00;100648.03;6305527;22;20014;-82
2023/12/09 04:20:57;;;;;;;39.88;10.82;;;;;;;4.53;100.00;100645.75;6305457;22;20007;-82
2023/12/09 04:23:23;;;;;;;38.88;10.50;;;;;;;4.61;100.00;100648.31;6278077;22;20059;-82
2023/12/09 04:25:48;;;;;;;34.97;10.32;;;;;;;4.64;100.00;100644.50;6278097;22;20007;-82
2023/12/09 04:28:13;;;;;;;28.58;8.77;;;;;;;4.58;100.00;100627.47;6305798;22;20309;-83
2023/12/09 04:30:39;;;;;;;39.38;9.50;;;;;;;4.61;100.00;100634.25;6305038;22;19999;-83
2023/12/09 04:33:04;;;;;;;29.67;10.02;;;;;;;4.65;100.00;100638.19;6305550;22;20474;-83
2023/12/09 04:35:29;;;;;;;38.33;12.43;;;;;;;4.57;100.00;100612.59;6305432;22;20078;-82
2023/12/09 04:37:55;;;;;;;43.67;12.68;;;;;;;4.68;100.00;100629.06;6305316;22;20130;-81
2023/12/09 04:40:21;;;;;;;44.03;13.35;;;;;;;4.74;100.00;100618.56;6277830;22;20078;-81
2023/12/09 04:42:46;;;;;;;36.20;10.07;;;;;;;4.84;100.00;100623.59;6305426;22;20478;-82
2023/12/09 04:45:11;;;;;;;38.72;10.30;;;;;;;4.72;100.00;100612.63;6277934;22;20332;-81
2023/12/09 04:47:37;;;;;;;34.28;9.75;;;;;;;4.70;100.00;100605.88;6278053;22;20094;-82
2023/12/09 04:50:04;;;;;;;24.90;7.20;;;;;;;4.63;100.00;100597.84;6305307;22;20417;-80
2023/12/09 04:52:30;;;;;;;34.40;9.07;;;;;;;4.65;100.00;100614.38;6277819;22;20008;-81
2023/12/09 04:54:55;;;;;;;38.13;10.05;;;;;;;4.59;100.00;100605.31;6277677;22;20490;-82
2023/12/09 04:57:21;;;;;;;36.20;10.02;;;;;;;4.63;100.00;100606.59;6305106;22;20017;-82
2023/12/09 04:59:47;;;;;;;29.58;10.20;;;;;;;4.65;100.00;100606.44;6305407;22;20003;-82
2023/12/09 05:02:12;;;;;;;39.17;12.23;;;;;;;4.71;100.00;100583.69;6305237;22;20007;-83
2023/12/09 05:04:37;;;;;;;30.25;9.52;;;;;;;4.71;100.00;100597.75;6305221;22;20007;-83
2023/12/09 05:07:03;;;;;;;34.30;10.18;;;;;;;4.78;100.00;100598.66;6305083;22;20332;-84
2023/12/09 05:09:28;;;;;;;38.88;11.95;;;;;;;4.74;100.00;100602.69;6305017;22;19999;-82
2023/12/09 05:11:54;;;;;;;34.00;9.02;;;;;;;4.72;100.00;100601.22;6305122;22;20417;-83
2023/12/09 05:14:19;;;;;;;42.53;11.23;;;;;;;4.67;100.00;100585.88;6277848;22;20430;-83
2023/12/09 05:16:44;;;;;;;31.27;8.18;;;;;;;4.67;100.00;100591.19;6277854;22;20336;-83
2023/12/09 05:19:10;;;;;;;28.67;9.02;;;;;;;4.66;100.00;100589.53;6305154;22;19999;-81
2023/12/09 05:21:35;;;;;;;29.73;10.02;;;;;;;4.68;100.00;100592.81;6305025;22;20010;-82
2023/12/09 05:24:01;;;;;;;25.17;7.20;;;;;;;4.69;100.00;100598.94;6277488;22;20053;-81
2023/12/09 05:26:31;;;;;;;25.83;9.02;;;;;;;4.63;100.00;100585.44;6305672;22;20069;-81
2023/12/09 05:28:57;;;;;;;25.00;8.93;;;;;;;4.74;100.00;100585.97;6277806;22;20069;-83
2023/12/09 05:31:24;;;;;;;20.83;8.48;;;;;;;4.74;100.00;100584.13;6277519;22;20003;-83
2023/12/09 05:33:50;;;;;;;32.63;8.77;;;;;;;4.65;100.00;100572.81;6277421;22;20052;-82
2023/12/09 05:36:15;;;;;;;33.70;9.82;;;;;;;4.64;100.00;100554.47;6304930;22;20082;-82
2023/12/09 05:38:42;;;;;;;28.65;8.57;;;;;;;4.69;100.00;100578.56;6304777;22;20369;-82
2023/12/09 05:41:08;;;;;;;20.38;7.78;;;;;;;4.68;100.00;100578.75;6305410;22;20011;-81
2023/12/09 05:43:38;;;;;;;24.95;7.20;;;;;;;4.75;100.00;100567.25;6278955;22;20428;-81
2023/12/09 05:46:04;;;;;;;25.85;8.60;;;;;;;4.80;100.00;100577.28;6278872;22;20010;-82
2023/12/09 05:48:32;;;;;;;33.88;9.73;;;;;;;4.73;100.00;100555.19;6306290;22;20008;-80
2023/12/09 05:50:57;;;;;;;23.15;7.32;;;;;;;4.83;100.00;100563.69;6306335;22;20034;-82
2023/12/09 05:53:22;;;;;;;24.02;7.53;;;;;;;4.68;100.00;100553.09;6278828;22;20007;-82
2023/12/09 05:55:48;;;;;;;19.65;6.10;;;;;;;4.76;100.00;100571.53;6278985;22;20007;-82
2023/12/09 05:58:13;;;;;;;20.00;6.32;;;;;;;4.80;100.00;100572.00;6306238;22;20078;-82
2023/12/09 06:00:39;;;;;;;28.30;7.90;;;;;;;4.75;100.00;100572.53;6279037;22;20007;-85
2023/12/09 06:03:04;;;;;;;20.92;7.15;;;;;;;4.69;100.00;100567.16;6279125;22;20110;-84
2023/12/09 06:05:29;;;;;;;21.45;6.80;;;;;;;4.69;100.00;100560.03;6306272;22;20003;-85
2023/12/09 06:07:54;;;;;;;26.67;8.18;;;;;;;4.71;100.00;100560.69;6306329;22;20113;-85
2023/12/09 06:10:20;;;;;;;29.90;9.30;;;;;;;4.80;100.00;100575.47;6306309;22;20076;-84
2023/12/09 06:12:45;;;;;;;20.00;6.70;;;;;;;4.76;100.00;100562.78;6306204;22;20082;-84
2023/12/09 06:15:11;;;;;;;29.58;9.43;;;;;;;4.84;100.00;100554.72;6278760;22;20076;-84
2023/12/09 06:17:37;;;;;;;22.73;7.72;;;;;;;4.76;100.00;100536.28;6278701;22;20012;-83
2023/12/09 06:20:05;;;;;;;22.52;6.25;;;;;;;4.74;100.00;100530.34;6306127;22;20053;-84
2023/12/09 06:22:30;;;;;;;23.10;6.55;;;;;;;4.77;100.00;100537.94;6306088;22;20011;-84
2023/12/09 06:24:56;;;;;;;26.00;6.68;;;;;;;4.65;100.00;100532.28;6306156;22;20057;-84
2023/12/09 06:27:21;;;;;;;24.83;5.90;;;;;;;4.63;100.00;100521.88;6306192;22;20430;-82
2023/12/09 06:29:46;;;;;;;26.20;6.93;;;;;;;4.57;100.00;100517.28;6306132;22;20378;-83
2023/12/09 06:32:15;;;;;;;26.15;7.28;;;;;;;4.66;100.00;100529.44;6306138;22;20007;-83
2023/12/09 06:34:40;;;;;;;26.40;8.55;;;;;;;4.70;100.00;100521.97;6306218;22;20011;-82
2023/12/09 06:37:05;;;;;;;22.77;7.38;;;;;;;4.67;100.00;100509.09;6305998;22;20037;-83
2023/12/09 06:39:31;;;;;;;32.50;7.88;;;;;;;4.72;100.00;100514.66;6278609;22;20015;-83
2023/12/09 06:41:56;;;;;;;27.23;6.68;;;;;;;4.64;100.00;100499.69;6278787;22;20436;-83
2023/12/09 06:44:22;;;;;;;18.30;6.15;;;;;;;4.72;100.00;100505.88;6278609;22;20459;-83
2023/12/09 06:46:47;;;;;;;16.92;6.72;;;;;;;4.76;100.00;100507.16;6278666;22;20011;-83
2023/12/09 06:49:12;;;;;;;21.10;7.63;;;;;;;4.69;100.00;100493.84;6278909;22;20007;-83
2023/12/09 06:51:40;;;;;;;25.23;6.00;;;;;;;4.69;100.00;100482.41;6305926;22;20049;-82
2023/12/09 06:54:06;;;;;;;28.48;8.18;;;;;;;4.74;100.00;100482.69;6305366;22;20085;-83
2023/12/09 06:56:31;;;;;;;15.80;6.07;;;;;;;4.79;100.00;100488.25;6305951;22;20456;-82
2023/12/09 06:58:57;;;;;;;16.73;5.97;;;;;;;4.76;100.00;100462.13;6278524;22;20336;-82
2023/12/09 07:01:23;;;;;;;22.65;6.35;;;;;;;4.79;100.00;100464.41;6305914;22;20436;-82
2023/12/09 07:03:49;;;;;;;25.45;7.82;;;;;;;4.68;100.00;100438.41;6278754;22;20703;-83
2023/12/09 07:06:23;;;;;;;24.38;6.85;;;;;;;4.74;100.00;100442.97;6305892;22;20042;-84
2023/12/09 07:08:48;;;;;;;20.67;6.45;;;;;;;4.89;100.00;100441.06;6278902;22;20513;-82
2023/12/09 07:11:16;;;;;;;34.22;8.93;;;;;;;4.91;100.00;100423.16;6306029;22;20007;-85
2023/12/09 07:13:41;;;;;;;20.00;6.30;;;;;;;4.85;100.00;100419.44;6278611;22;20010;-82
2023/12/09 07:16:10;;;;;;;24.50;7.75;;;;;;;4.82;100.00;100405.75;6305819;22;20030;-82
2023/12/09 07:18:46;;;;;;;16.75;5.70;;;;;;;4.92;100.00;100401.00;6305610;22;20374;-83
2023/12/09 07:21:14;;;;;;;16.77;5.55;;;;;;;5.03;100.00;100407.63;6305845;22;20052;-84
2023/12/09 07:23:40;;;;;;;22.20;6.55;;;;;;;4.95;100.00;100409.38;6305952;22;20039;-82
2023/12/09 07:26:06;;;;;;;21.58;6.35;;;;;;;5.03;100.00;100421.69;6305555;22;20387;-84
2023/12/09 07:28:32;;;;;;;22.98;7.18;;;;;;;5.05;100.00;100411.72;6305872;22;20065;-84
2023/12/09 07:30:57;;;;;;;19.25;5.25;;;;;;;5.16;100.00;100416.50;6305592;22;20428;-84
2023/12/09 07:33:23;;;;;;;13.93;4.80;;;;;;;5.17;100.00;100414.66;6278213;22;20004;-83
2023/12/09 07:35:48;;;;;;;19.60;5.85;;;;;;;5.20;100.00;100401.03;6278224;22;20527;-85
2023/12/09 07:38:13;;;;;;;24.00;8.05;;;;;;;5.23;100.00;100390.91;6305620;22;20013;-85
2023/12/09 07:40:39;;;;;;;12.73;5.22;;;;;;;5.27;100.00;100386.03;6305408;22;20002;-85
2023/12/09 07:43:04;;;;;;;13.65;5.95;;;;;;;5.29;100.00;100384.84;6278209;22;20011;-83
2023/12/09 07:45:30;;;;;;;28.05;7.50;;;;;;;5.28;100.00;100390.31;6278287;22;20015;-83
2023/12/09 07:47:55;;;;;;;18.05;5.40;;;;;;;5.30;100.00;100388.31;6278286;22;20003;-81
2023/12/09 07:50:21;;;;;;;12.88;5.15;;;;;;;5.29;100.00;100392.78;6305552;22;20041;-83
2023/12/09 07:52:46;;;;;;;26.70;6.93;;;;;;;5.39;100.00;100384.50;6305843;22;20102;-83
2023/12/09 07:55:11;;;;;;;26.60;7.13;;;;;;;5.42;100.00;100376.16;6278180;22;20090;-79
2023/12/09 07:57:37;;;;;;;17.55;5.38;;;;;;;5.43;100.00;100374.31;6305820;22;20010;-80
2023/12/09 08:00:03;;;;;;;15.95;4.75;;;;;;;5.44;100.00;100365.38;6305606;22;20101;-80
2023/12/09 08:02:29;;;;;;;23.02;7.53;;;;;;;5.47;100.00;100359.66;6278203;22;20006;-80
2023/12/09 08:04:54;;;;;;;26.05;8.10;;;;;;;5.59;100.00;100366.09;6305539;22;20011;-80
2023/12/09 08:07:20;;;;;;;27.67;8.02;;;;;;;5.59;100.00;100347.53;6278404;22;20013;-80
2023/12/09 08:09:45;;;;;;;18.13;5.85;;;;;;;5.65;100.00;100362.66;6305980;22;20007;-80
2023/12/09 08:12:10;;;;;;;23.58;5.75;;;;;;;5.53;100.00;100343.84;6305474;22;20048;-81
2023/12/09 08:14:36;;;;;;;17.92;5.53;;;;;;;5.70;100.00;100348.81;6278053;22;20015;-79
2023/12/09 08:17:01;;;;;;;18.10;5.32;;;;;;;5.67;100.00;100331.47;6305640;22;20010;-82
2023/12/09 08:19:26;;;;;;;19.42;6.05;;;;;;;5.76;100.00;100364.78;6278132;22;20011;-81
2023/12/09 08:21:51;;;;;;;22.60;5.93;;;;;;;5.80;100.00;100350.13;6278228;22;20010;-81
2023/12/09 08:24:17;;;;;;;13.82;5.22;;;;;;;5.84;100.00;100353.22;6305308;22;20021;-81
2023/12/09 08:26:42;;;;;;;14.30;4.63;;;;;;;5.83;100.00;100335.66;6305492;22;20018;-82
2023/12/09 08:29:14;;;;;;;17.60;6.15;;;;;;;5.85;100.00;100347.72;6305255;22;20328;-83
2023/12/09 08:31:39;;;;;;;13.77;4.93;;;;;;;5.90;100.00;100355.09;6305182;22;20443;-82
2023/12/09 08:34:04;;;;;;;18.23;5.88;;;;;;;5.94;100.00;100353.69;6305348;22;20017;-82
2023/12/09 08:36:30;;;;;;;14.88;5.13;;;;;;;5.99;100.00;100348.63;6277807;22;20447;-83
2023/12/09 08:38:55;;;;;;;20.65;6.45;;;;;;;5.94;100.00;100345.75;6277841;22;20003;-81
2023/12/09 08:41:21;;;;;;;12.85;5.07;;;;;;;5.97;100.00;100336.56;6305170;22;20086;-81
2023/12/09 08:43:46;;;;;;;17.13;5.38;;;;;;;6.01;100.00;100335.97;6277903;22;20387;-84
2023/12/09 08:46:12;;;;;;;15.88;4.63;;;;;;;5.96;100.00;100306.56;6277719;22;20037;-82
2023/12/09 08:48:37;;;;;;;12.93;4.30;;;;;;;6.14;100.00;100319.31;6305218;22;20011;-82
2023/12/09 08:51:03;;;;;;;14.13;4.43;;;;;;;6.14;100.00;100320.13;6305162;22;20003;-86
2023/12/09 08:53:29;;;;;;;12.00;4.47;;;;;;;6.16;100.00;100318.09;6305107;22;20011;-84
2023/12/09 08:55:54;;;;;;;12.98;4.70;;;;;;;6.18;100.00;100307.28;6305382;22;20098;-87
2023/12/09 08:58:20;;;;;;;12.40;4.78;;;;;;;6.34;100.00;100314.88;6277692;22;20007;-84
2023/12/09 09:00:45;;;;;;;17.20;5.60;;;;;;;6.28;100.00;100320.16;6305396;22;20328;-88
2023/12/09 09:03:10;;;;;;;12.80;5.05;;;;;;;6.29;100.00;100306.69;6277833;22;20011;-87
2023/12/09 09:05:36;;;;;;;15.23;4.75;;;;;;;6.32;100.00;100313.44;6305317;22;20253;-87
2023/12/09 09:08:01;;;;;;;12.30;4.15;;;;;;;6.39;100.00;100301.84;6305226;22;20003;-88
2023/12/09 09:10:26;;;;;;;16.33;4.35;;;;;;;6.45;100.00;100298.38;6305238;22;20007;-87
2023/12/09 09:12:52;;;;;;;7.95;3.55;;;;;;;6.40;100.00;100273.44;6306170;22;20007;-89
2023/12/09 09:15:17;;;;;;;14.55;4.68;;;;;;;6.40;100.00;100268.13;6279996;22;20036;-89
2023/12/09 09:17:42;;;;;;;12.50;3.60;;;;;;;6.38;100.00;100249.75;6279217;22;20011;-87
2023/12/09 09:20:10;;;;;;;8.98;3.97;;;;;;;6.43;100.00;100238.53;6278923;22;20003;-87
2023/12/09 09:22:35;;;;;;;10.65;3.60;;;;;;;6.44;100.00;100237.50;6306168;22;20003;-90
2023/12/09 09:25:01;;;;;;;13.48;3.67;;;;;;;6.49;100.00;100224.44;6278910;22;20052;-87
2023/12/09 09:27:26;;;;;;;15.35;4.45;;;;;;;6.50;100.00;100212.78;6306159;22;20015;-88
2023/12/09 09:29:51;;;;;;;12.40;4.28;;;;;;;6.47;100.00;100211.34;6306420;22;20003;-87
2023/12/09 09:32:17;;;;;;;13.02;4.55;;;;;;;6.41;100.00;100188.28;6306148;22;20027;-86
2023/12/09 09:34:42;;;;;;;12.27;3.42;;;;;;;6.41;100.00;100209.50;6306527;22;20011;-86
2023/12/09 09:37:08;;;;;;;10.68;3.88;;;;;;;6.43;100.00;100194.19;6278882;22;20007;-89
2023/12/09 09:39:34;;;;;;;9.25;3.60;;;;;;;6.51;100.00;100212.59;6306456;22;20029;-86
2023/12/09 09:42:21;;;;;;;15.50;4.07;;;;;;;6.61;100.00;100214.81;6279257;22;20003;-89
2023/12/09 09:45:05;;;;;;;8.93;3.70;;;;;;;6.64;100.00;100201.13;6278112;22;20443;-88
2023/12/09 09:47:32;;;;;;;12.45;4.43;;;;;;;6.68;100.00;100190.94;6305290;22;20328;-88
2023/12/09 09:50:00;;;;;;;11.57;4.70;;;;;;;6.69;100.00;100184.59;6302971;22;20051;-88
2023/12/09 09:52:27;;;;;;;14.40;4.10;;;;;;;6.80;100.00;100189.28;6278902;22;20119;-88
2023/12/09 09:54:53;;;;;;;12.38;3.63;;;;;;;6.82;100.00;100179.28;6306445;22;20430;-87
2023/12/09 09:57:20;;;;;;;12.55;3.95;;;;;;;6.87;100.00;100186.63;6306232;22;20057;-87
2023/12/09 09:59:46;;;;;;;12.65;4.85;;;;;;;6.88;100.00;100173.13;6279048;22;20007;-85
2023/12/09 10:02:15;;;;;;;10.30;3.15;;;;;;;6.91;100.00;100172.72;6279158;22;20000;-87
2023/12/09 10:04:40;;;;;;;13.40;3.67;;;;;;;6.90;100.00;100164.94;6279115;22;20010;-86
2023/12/09 10:07:05;;;;;;;9.55;3.92;;;;;;;6.89;100.00;100142.88;6279080;22;20003;-89
2023/12/09 10:09:33;;;;;;;7.30;3.08;;;;;;;7.04;100.00;100146.13;6306154;22;20117;-86
2023/12/09 10:11:58;;;;;;;10.88;4.07;;;;;;;7.10;100.00;100139.16;6306427;22;20011;-85
2023/12/09 10:14:23;;;;;;;10.55;3.50;;;;;;;7.04;100.00;100111.56;6306116;22;20494;-85
2023/12/09 10:16:50;;;;;;;9.10;3.83;;;;;;;7.12;100.00;100116.66;6306420;22;20057;-86
2023/12/09 10:19:16;;;;;;;10.25;3.67;;;;;;;7.10;100.00;100088.66;6306395;22;20033;-88
2023/12/09 10:21:42;;;;;;;13.05;3.55;;;;;;;7.10;100.00;100086.00;6306361;22;20022;-87
2023/12/09 10:24:07;;;;;;;14.90;4.15;;;;;;;7.13;100.00;100077.59;6306282;22;20003;-86
2023/12/09 10:26:33;;;;;;;11.88;3.72;;;;;;;7.17;100.00;100060.19;6306485;22;20014;-85
2023/12/09 10:28:58;;;;;;;11.38;4.13;;;;;;;7.17;100.00;100060.19;6278634;22;20015;-86
2023/12/09 10:31:25;;;;;;;9.77;3.88;;;;;;;7.15;100.00;100062.25;6278896;22;20011;-85
2023/12/09 10:33:51;;;;;;;11.25;3.13;;;;;;;7.19;100.00;100057.31;6306321;22;20361;-87
2023/12/09 10:36:17;;;;;;;12.07;3.80;;;;;;;7.29;100.00;100037.25;6278654;22;20035;-86
2023/12/09 10:38:45;;;;;;;6.25;3.00;;;;;;;7.27;100.00;100034.00;6306089;22;20388;-84
2023/12/09 10:41:13;;;;;;;12.18;4.25;;;;;;;7.21;100.00;100037.47;6306180;22;19999;-83
2023/12/09 10:43:40;;;;;;;11.30;3.92;;;;;;;6.99;100.00;99991.78;6278921;22;20444;-89
2023/12/09 10:46:06;;;;;;;10.60;3.72;;;;;;;7.22;100.00;100001.88;6278844;22;20003;-86
2023/12/09 10:48:31;;;;;;;5.80;2.75;;;;;;;7.19;100.00;99998.84;6306057;22;20014;-82
2023/12/09 10:50:57;;;;;;;8.18;3.00;;;;;;;7.13;100.00;99984.56;6305987;22;20416;-85
2023/12/09 10:53:22;;;;;;;8.18;3.35;;;;;;;6.98;100.00;99982.19;6278645;22;20003;-84
2023/12/09 10:55:48;;;;;;;9.35;2.78;;;;;;;6.86;100.00;99962.59;6278764;22;20019;-82
2023/12/09 10:58:14;;;;;;;9.70;3.35;;;;;;;6.69;100.00;99945.53;6278884;22;20017;-85
2023/12/09 11:00:42;;;;;;;11.05;4.63;;;;;;;6.60;100.00;99923.69;6278789;22;20089;-84
2023/12/09 11:03:08;;;;;;;10.13;3.13;;;;;;;6.51;100.00;99928.41;6278742;22;20071;-86
2023/12/09 11:05:44;;;;;;;6.20;2.80;;;;;;;6.60;100.00;99939.63;6305939;22;20041;-85
2023/12/09 11:08:11;;;;;;;17.58;3.42;;;;;;;6.56;100.00;99927.78;6306053;22;20037;-89
2023/12/09 11:10:37;;;;;;;10.38;3.83;;;;;;;6.57;100.00;99931.25;6278614;22;19999;-80
2023/12/09 11:13:03;;;;;;;10.43;2.80;;;;;;;6.66;100.00;99911.41;6306057;22;20019;-81